sensor_id;sensor_type;location;lat;lon;timestamp;temperature;humidity
21508;DHT22;10915;54.352;9.074;2023-05-07T00:00:40;8.80;99.90
21508;DHT22;10915;54.352;9.074;2023-05-07T00:03:07;8.70;99.90
21508;DHT22;10915;54.352;9.074;2023-05-07T00:05:33;8.70;99.90
21508;DHT22;10915;54.352;9.074;2023-05-07T00:07:58;8.70;99.90
21508;DHT22;10915;54.352;9.074;2023-05-07T00:10:25;8.60;99.90
21508;DHT22;10915;54.352;9.074;2023-05-07T00:12:50;8.60;99.90
21508;DHT22;10915;54.352;9.074;2023-05-07T00:15:16;8.60;99.90
21508;DHT22;10915;54.352;9.074;2023-05-07T00:17:42;8.60;99.90
21508;DHT22;10915;54.352;9.074;2023-05-07T00:20:08;8.60;99.90
21508;DHT22;10915;54.352;9.074;2023-05-07T00:22:33;8.60;99.90
21508;DHT22;10915;54.352;9.074;2023-05-07T00:24:59;8.60;99.90
21508;DHT22;10915;54.352;9.074;2023-05-07T00:27:25;8.60;99.90
21508;DHT22;10915;54.352;9.074;2023-05-07T00:29:51;8.60;99.90
21508;DHT22;10915;54.352;9.074;2023-05-07T00:32:16;8.50;99.90
21508;DHT22;10915;54.352;9.074;2023-05-07T00:34:43;8.50;99.90
21508;DHT22;10915;54.352;9.074;2023-05-07T00:37:08;8.60;99.90
21508;DHT22;10915;54.352;9.074;2023-05-07T00:39:35;8.60;99.90
21508;DHT22;10915;54.352;9.074;2023-05-07T00:42:00;8.60;99.90
21508;DHT22;10915;54.352;9.074;2023-05-07T00:44:26;8.60;99.90
21508;DHT22;10915;54.352;9.074;2023-05-07T00:46:53;8.60;99.90
21508;DHT22;10915;54.352;9.074;2023-05-07T00:49:19;8.60;99.90
21508;DHT22;10915;54.352;9.074;2023-05-07T00:51:46;8.70;99.90
21508;DHT22;10915;54.352;9.074;2023-05-07T00:54:13;8.60;99.90
21508;DHT22;10915;54.352;9.074;2023-05-07T00:56:39;8.60;99.90
21508;DHT22;10915;54.352;9.074;2023-05-07T00:59:05;8.60;99.90
21508;DHT22;10915;54.352;9.074;2023-05-07T01:01:31;8.60;99.90
21508;DHT22;10915;54.352;9.074;2023-05-07T01:03:57;8.60;99.90
21508;DHT22;10915;54.352;9.074;2023-05-07T01:06:24;8.60;99.90
21508;DHT22;10915;54.352;9.074;2023-05-07T01:08:52;8.60;99.90
21508;DHT22;10915;54.352;9.074;2023-05-07T01:11:18;8.60;99.90
21508;DHT22;10915;54.352;9.074;2023-05-07T01:13:46;8.70;99.90
21508;DHT22;10915;54.352;9.074;2023-05-07T01:16:13;8.70;99.90
21508;DHT22;10915;54.352;9.074;2023-05-07T01:18:38;8.70;99.90
21508;DHT22;10915;54.352;9.074;2023-05-07T01:21:05;8.70;99.90
21508;DHT22;10915;54.352;9.074;2023-05-07T01:23:30;8.70;99.90
21508;DHT22;10915;54.352;9.074;2023-05-07T01:25:56;8.60;99.90
21508;DHT22;10915;54.352;9.074;2023-05-07T01:28:22;8.60;99.90
21508;DHT22;10915;54.352;9.074;2023-05-07T01:30:51;8.70;99.90
21508;DHT22;10915;54.352;9.074;2023-05-07T01:33:20;8.60;99.90
21508;DHT22;10915;54.352;9.074;2023-05-07T01:35:52;8.70;99.90
21508;DHT22;10915;54.352;9.074;2023-05-07T01:38:19;8.70;99.90
21508;DHT22;10915;54.352;9.074;2023-05-07T01:40:46;8.70;99.90
21508;DHT22;10915;54.352;9.074;2023-05-07T01:43:12;8.70;99.90
21508;DHT22;10915;54.352;9.074;2023-05-07T01:45:38;8.70;99.90
21508;DHT22;10915;54.352;9.074;2023-05-07T01:48:06;8.70;99.90
21508;DHT22;10915;54.352;9.074;2023-05-07T01:50:32;8.80;99.90
21508;DHT22;10915;54.352;9.074;2023-05-07T01:52:59;8.80;99.90
21508;DHT22;10915;54.352;9.074;2023-05-07T01:55:25;8.80;99.90
21508;DHT22;10915;54.352;9.074;2023-05-07T01:57:50;8.80;99.90
21508;DHT22;10915;54.352;9.074;2023-05-07T02:00:16;8.80;99.90
21508;DHT22;10915;54.352;9.074;2023-05-07T02:02:42;8.90;99.90
21508;DHT22;10915;54.352;9.074;2023-05-07T02:05:08;8.90;99.90
21508;DHT22;10915;54.352;9.074;2023-05-07T02:07:34;9.00;99.90
21508;DHT22;10915;54.352;9.074;2023-05-07T02:10:00;9.00;99.90
21508;DHT22;10915;54.352;9.074;2023-05-07T02:12:25;9.00;99.90
21508;DHT22;10915;54.352;9.074;2023-05-07T02:14:51;9.00;99.90
21508;DHT22;10915;54.352;9.074;2023-05-07T02:17:16;9.00;99.90
21508;DHT22;10915;54.352;9.074;2023-05-07T02:19:42;9.00;99.90
21508;DHT22;10915;54.352;9.074;2023-05-07T02:22:09;9.00;99.90
21508;DHT22;10915;54.352;9.074;2023-05-07T02:24:34;9.00;99.90
21508;DHT22;10915;54.352;9.074;2023-05-07T02:27:00;9.00;99.90
21508;DHT22;10915;54.352;9.074;2023-05-07T02:29:27;9.10;99.90
21508;DHT22;10915;54.352;9.074;2023-05-07T02:31:52;9.10;99.90
21508;DHT22;10915;54.352;9.074;2023-05-07T02:34:18;9.10;99.90
21508;DHT22;10915;54.352;9.074;2023-05-07T02:36:44;9.10;99.90
21508;DHT22;10915;54.352;9.074;2023-05-07T02:39:11;9.10;99.90
21508;DHT22;10915;54.352;9.074;2023-05-07T02:41:37;9.10;99.90
21508;DHT22;10915;54.352;9.074;2023-05-07T02:44:03;9.10;99.90
21508;DHT22;10915;54.352;9.074;2023-05-07T02:46:28;9.10;99.90
21508;DHT22;10915;54.352;9.074;2023-05-07T02:48:54;9.10;99.90
21508;DHT22;10915;54.352;9.074;2023-05-07T02:51:21;9.00;99.90
21508;DHT22;10915;54.352;9.074;2023-05-07T02:53:47;9.10;99.90
21508;DHT22;10915;54.352;9.074;2023-05-07T02:56:12;9.10;99.90
21508;DHT22;10915;54.352;9.074;2023-05-07T02:58:38;9.10;99.90
21508;DHT22;10915;54.352;9.074;2023-05-07T03:01:09;9.10;99.90
21508;DHT22;10915;54.352;9.074;2023-05-07T03:03:35;9.20;99.90
21508;DHT22;10915;54.352;9.074;2023-05-07T03:06:01;9.20;99.90
21508;DHT22;10915;54.352;9.074;2023-05-07T03:08:27;9.20;99.90
21508;DHT22;10915;54.352;9.074;2023-05-07T03:10:53;9.20;99.90
21508;DHT22;10915;54.352;9.074;2023-05-07T03:13:18;9.30;99.90
21508;DHT22;10915;54.352;9.074;2023-05-07T03:15:44;9.30;99.90
21508;DHT22;10915;54.352;9.074;2023-05-07T03:18:09;9.30;99.90
21508;DHT22;10915;54.352;9.074;2023-05-07T03:20:36;9.30;99.90
21508;DHT22;10915;54.352;9.074;2023-05-07T03:23:02;9.30;99.90
21508;DHT22;10915;54.352;9.074;2023-05-07T03:25:28;9.30;99.90
21508;DHT22;10915;54.352;9.074;2023-05-07T03:27:55;9.30;99.90
21508;DHT22;10915;54.352;9.074;2023-05-07T03:30:21;9.30;99.90
21508;DHT22;10915;54.352;9.074;2023-05-07T03:32:47;9.30;99.90
21508;DHT22;10915;54.352;9.074;2023-05-07T03:35:12;9.20;99.90
21508;DHT22;10915;54.352;9.074;2023-05-07T03:37:39;9.20;99.90
21508;DHT22;10915;54.352;9.074;2023-05-07T03:40:05;9.20;99.90
21508;DHT22;10915;54.352;9.074;2023-05-07T03:42:31;9.20;99.90
21508;DHT22;10915;54.352;9.074;2023-05-07T03:44:57;9.20;99.90
21508;DHT22;10915;54.352;9.074;2023-05-07T03:47:23;9.20;99.90
21508;DHT22;10915;54.352;9.074;2023-05-07T03:49:49;9.30;99.90
21508;DHT22;10915;54.352;9.074;2023-05-07T03:52:15;9.30;99.90
21508;DHT22;10915;54.352;9.074;2023-05-07T03:54:42;9.30;99.90
21508;DHT22;10915;54.352;9.074;2023-05-07T03:57:07;9.30;99.90
21508;DHT22;10915;54.352;9.074;2023-05-07T03:59:33;9.20;99.90
21508;DHT22;10915;54.352;9.074;2023-05-07T04:01:58;9.20;99.90
21508;DHT22;10915;54.352;9.074;2023-05-07T04:04:24;9.20;99.90
21508;DHT22;10915;54.352;9.074;2023-05-07T04:06:50;9.20;99.90
21508;DHT22;10915;54.352;9.074;2023-05-07T04:09:15;9.20;99.90
21508;DHT22;10915;54.352;9.074;2023-05-07T04:11:41;9.20;99.90
21508;DHT22;10915;54.352;9.074;2023-05-07T04:14:06;9.20;99.90
21508;DHT22;10915;54.352;9.074;2023-05-07T04:16:32;9.30;99.90
21508;DHT22;10915;54.352;9.074;2023-05-07T04:18:58;9.30;99.90
21508;DHT22;10915;54.352;9.074;2023-05-07T04:21:23;9.30;99.90
21508;DHT22;10915;54.352;9.074;2023-05-07T04:23:49;9.30;99.90
21508;DHT22;10915;54.352;9.074;2023-05-07T04:26:15;9.30;99.90
21508;DHT22;10915;54.352;9.074;2023-05-07T04:28:41;9.30;99.90
21508;DHT22;10915;54.352;9.074;2023-05-07T04:31:07;9.30;99.90
21508;DHT22;10915;54.352;9.074;2023-05-07T04:33:33;9.30;99.90
21508;DHT22;10915;54.352;9.074;2023-05-07T04:36:03;9.30;99.90
21508;DHT22;10915;54.352;9.074;2023-05-07T04:38:32;9.30;99.90
21508;DHT22;10915;54.352;9.074;2023-05-07T04:41:03;9.20;99.90
21508;DHT22;10915;54.352;9.074;2023-05-07T04:43:28;9.30;99.90
21508;DHT22;10915;54.352;9.074;2023-05-07T04:45:54;9.30;99.90
21508;DHT22;10915;54.352;9.074;2023-05-07T04:48:20;9.30;99.90
21508;DHT22;10915;54.352;9.074;2023-05-07T04:50:49;9.20;99.90
21508;DHT22;10915;54.352;9.074;2023-05-07T04:53:15;9.10;99.90
21508;DHT22;10915;54.352;9.074;2023-05-07T04:55:41;9.20;99.90
21508;DHT22;10915;54.352;9.074;2023-05-07T04:58:07;9.20;99.90
21508;DHT22;10915;54.352;9.074;2023-05-07T05:00:33;9.20;99.90
21508;DHT22;10915;54.352;9.074;2023-05-07T05:02:59;9.30;99.90
21508;DHT22;10915;54.352;9.074;2023-05-07T05:05:24;9.30;99.90
21508;DHT22;10915;54.352;9.074;2023-05-07T05:07:50;9.30;99.90
21508;DHT22;10915;54.352;9.074;2023-05-07T05:10:17;9.30;99.90
21508;DHT22;10915;54.352;9.074;2023-05-07T05:12:43;9.30;99.90
21508;DHT22;10915;54.352;9.074;2023-05-07T05:15:10;9.30;99.90
21508;DHT22;10915;54.352;9.074;2023-05-07T05:17:36;9.30;99.90
21508;DHT22;10915;54.352;9.074;2023-05-07T05:20:02;9.30;99.90
21508;DHT22;10915;54.352;9.074;2023-05-07T05:22:28;9.30;99.90
21508;DHT22;10915;54.352;9.074;2023-05-07T05:24:56;9.40;99.90
21508;DHT22;10915;54.352;9.074;2023-05-07T05:27:22;9.40;99.90
21508;DHT22;10915;54.352;9.074;2023-05-07T05:29:47;9.40;99.90
21508;DHT22;10915;54.352;9.074;2023-05-07T05:32:13;9.40;99.90
21508;DHT22;10915;54.352;9.074;2023-05-07T05:34:38;9.40;99.90
21508;DHT22;10915;54.352;9.074;2023-05-07T05:37:04;9.40;99.90
21508;DHT22;10915;54.352;9.074;2023-05-07T05:39:30;9.30;99.90
21508;DHT22;10915;54.352;9.074;2023-05-07T05:41:56;9.20;99.90
21508;DHT22;10915;54.352;9.074;2023-05-07T05:44:21;9.20;99.90
21508;DHT22;10915;54.352;9.074;2023-05-07T05:46:47;9.20;99.90
21508;DHT22;10915;54.352;9.074;2023-05-07T05:49:15;9.30;99.90
21508;DHT22;10915;54.352;9.074;2023-05-07T05:51:40;9.30;99.90
21508;DHT22;10915;54.352;9.074;2023-05-07T05:54:06;9.30;99.90
21508;DHT22;10915;54.352;9.074;2023-05-07T05:56:31;9.40;99.90
21508;DHT22;10915;54.352;9.074;2023-05-07T05:58:57;9.40;99.90
21508;DHT22;10915;54.352;9.074;2023-05-07T06:01:23;9.50;99.90
21508;DHT22;10915;54.352;9.074;2023-05-07T06:03:48;9.50;99.90
21508;DHT22;10915;54.352;9.074;2023-05-07T06:06:14;9.50;99.90
21508;DHT22;10915;54.352;9.074;2023-05-07T06:08:40;9.50;99.90
21508;DHT22;10915;54.352;9.074;2023-05-07T06:11:05;9.60;99.90
21508;DHT22;10915;54.352;9.074;2023-05-07T06:13:31;9.60;99.90
21508;DHT22;10915;54.352;9.074;2023-05-07T06:15:56;9.60;99.90
21508;DHT22;10915;54.352;9.074;2023-05-07T06:18:22;9.60;99.90
21508;DHT22;10915;54.352;9.074;2023-05-07T06:20:48;9.60;99.90
21508;DHT22;10915;54.352;9.074;2023-05-07T06:23:14;9.60;99.90
21508;DHT22;10915;54.352;9.074;2023-05-07T06:25:39;9.60;99.90
21508;DHT22;10915;54.352;9.074;2023-05-07T06:28:05;9.70;99.90
21508;DHT22;10915;54.352;9.074;2023-05-07T06:30:31;9.60;99.90
21508;DHT22;10915;54.352;9.074;2023-05-07T06:32:57;9.70;99.90
21508;DHT22;10915;54.352;9.074;2023-05-07T06:35:22;9.70;99.90
21508;DHT22;10915;54.352;9.074;2023-05-07T06:37:48;9.70;99.90
21508;DHT22;10915;54.352;9.074;2023-05-07T06:40:13;9.80;99.90
21508;DHT22;10915;54.352;9.074;2023-05-07T06:42:39;9.90;99.90
21508;DHT22;10915;54.352;9.074;2023-05-07T06:45:06;9.90;99.90
21508;DHT22;10915;54.352;9.074;2023-05-07T06:47:31;9.90;99.90
21508;DHT22;10915;54.352;9.074;2023-05-07T06:49:57;9.90;99.90
21508;DHT22;10915;54.352;9.074;2023-05-07T06:52:23;9.90;99.90
21508;DHT22;10915;54.352;9.074;2023-05-07T06:54:48;10.00;99.90
21508;DHT22;10915;54.352;9.074;2023-05-07T06:57:14;10.00;99.90
21508;DHT22;10915;54.352;9.074;2023-05-07T06:59:39;9.90;99.90
21508;DHT22;10915;54.352;9.074;2023-05-07T07:02:05;10.00;99.90
21508;DHT22;10915;54.352;9.074;2023-05-07T07:04:31;10.00;99.90
21508;DHT22;10915;54.352;9.074;2023-05-07T07:06:57;10.10;99.90
21508;DHT22;10915;54.352;9.074;2023-05-07T07:09:22;10.20;99.90
21508;DHT22;10915;54.352;9.074;2023-05-07T07:11:48;10.20;99.90
21508;DHT22;10915;54.352;9.074;2023-05-07T07:14:13;10.30;99.90
21508;DHT22;10915;54.352;9.074;2023-05-07T07:16:39;10.30;99.90
21508;DHT22;10915;54.352;9.074;2023-05-07T07:21:42;10.30;99.90
21508;DHT22;10915;54.352;9.074;2023-05-07T07:24:07;10.30;99.90
21508;DHT22;10915;54.352;9.074;2023-05-07T07:26:33;10.40;99.90
21508;DHT22;10915;54.352;9.074;2023-05-07T07:28:59;10.40;99.90
21508;DHT22;10915;54.352;9.074;2023-05-07T07:31:24;10.50;99.90
21508;DHT22;10915;54.352;9.074;2023-05-07T07:33:50;10.60;99.90
21508;DHT22;10915;54.352;9.074;2023-05-07T07:36:16;10.60;99.90
21508;DHT22;10915;54.352;9.074;2023-05-07T07:38:41;10.60;99.90
21508;DHT22;10915;54.352;9.074;2023-05-07T07:41:10;10.60;99.90
21508;DHT22;10915;54.352;9.074;2023-05-07T07:43:35;10.60;99.90
21508;DHT22;10915;54.352;9.074;2023-05-07T07:46:01;10.60;99.90
21508;DHT22;10915;54.352;9.074;2023-05-07T07:48:27;10.60;99.90
21508;DHT22;10915;54.352;9.074;2023-05-07T07:50:52;10.70;99.90
21508;DHT22;10915;54.352;9.074;2023-05-07T07:53:18;10.80;99.90
21508;DHT22;10915;54.352;9.074;2023-05-07T07:55:44;10.90;99.90
21508;DHT22;10915;54.352;9.074;2023-05-07T07:58:10;11.00;99.90
21508;DHT22;10915;54.352;9.074;2023-05-07T08:00:36;11.10;99.90
21508;DHT22;10915;54.352;9.074;2023-05-07T08:03:02;11.20;99.90
21508;DHT22;10915;54.352;9.074;2023-05-07T08:05:28;11.30;99.90
21508;DHT22;10915;54.352;9.074;2023-05-07T08:07:54;11.40;99.90
21508;DHT22;10915;54.352;9.074;2023-05-07T08:10:21;11.40;99.90
21508;DHT22;10915;54.352;9.074;2023-05-07T08:12:50;11.50;99.90
21508;DHT22;10915;54.352;9.074;2023-05-07T08:15:16;11.60;99.90
21508;DHT22;10915;54.352;9.074;2023-05-07T08:17:42;11.60;99.90
21508;DHT22;10915;54.352;9.074;2023-05-07T08:20:08;11.40;99.90
21508;DHT22;10915;54.352;9.074;2023-05-07T08:22:35;11.40;99.90
21508;DHT22;10915;54.352;9.074;2023-05-07T08:25:00;11.40;99.90
21508;DHT22;10915;54.352;9.074;2023-05-07T08:27:26;11.40;99.90
21508;DHT22;10915;54.352;9.074;2023-05-07T08:29:52;11.50;99.90
21508;DHT22;10915;54.352;9.074;2023-05-07T08:32:18;11.50;99.90
21508;DHT22;10915;54.352;9.074;2023-05-07T08:34:43;11.50;99.90
21508;DHT22;10915;54.352;9.074;2023-05-07T08:37:09;11.50;99.90
21508;DHT22;10915;54.352;9.074;2023-05-07T08:39:34;11.60;99.90
21508;DHT22;10915;54.352;9.074;2023-05-07T08:42:00;11.70;99.90
21508;DHT22;10915;54.352;9.074;2023-05-07T08:44:33;11.80;99.90
21508;DHT22;10915;54.352;9.074;2023-05-07T08:47:01;12.00;99.90
21508;DHT22;10915;54.352;9.074;2023-05-07T08:49:28;12.00;99.90
21508;DHT22;10915;54.352;9.074;2023-05-07T08:51:54;12.00;99.90
21508;DHT22;10915;54.352;9.074;2023-05-07T08:54:21;12.00;99.90
21508;DHT22;10915;54.352;9.074;2023-05-07T08:56:47;11.90;99.90
21508;DHT22;10915;54.352;9.074;2023-05-07T08:59:13;11.90;99.90
21508;DHT22;10915;54.352;9.074;2023-05-07T09:01:38;12.00;99.90
21508;DHT22;10915;54.352;9.074;2023-05-07T09:04:04;12.10;99.90
21508;DHT22;10915;54.352;9.074;2023-05-07T09:06:31;12.10;99.90
21508;DHT22;10915;54.352;9.074;2023-05-07T09:08:56;12.10;99.90
21508;DHT22;10915;54.352;9.074;2023-05-07T09:11:24;12.00;99.90
21508;DHT22;10915;54.352;9.074;2023-05-07T09:13:56;12.00;99.90
21508;DHT22;10915;54.352;9.074;2023-05-07T09:16:24;12.20;99.90
21508;DHT22;10915;54.352;9.074;2023-05-07T09:18:53;12.30;99.90
21508;DHT22;10915;54.352;9.074;2023-05-07T09:21:20;12.40;99.90
21508;DHT22;10915;54.352;9.074;2023-05-07T09:23:51;12.50;99.90
21508;DHT22;10915;54.352;9.074;2023-05-07T09:26:18;12.60;99.90
21508;DHT22;10915;54.352;9.074;2023-05-07T09:28:44;12.70;99.90
21508;DHT22;10915;54.352;9.074;2023-05-07T09:31:10;12.70;99.90
21508;DHT22;10915;54.352;9.074;2023-05-07T09:33:37;12.80;99.90
21508;DHT22;10915;54.352;9.074;2023-05-07T09:36:07;12.70;99.90
21508;DHT22;10915;54.352;9.074;2023-05-07T09:38:34;12.60;99.90
21508;DHT22;10915;54.352;9.074;2023-05-07T09:43:32;12.90;99.90
21508;DHT22;10915;54.352;9.074;2023-05-07T09:45:59;13.00;99.90
21508;DHT22;10915;54.352;9.074;2023-05-07T09:48:28;13.10;99.90
21508;DHT22;10915;54.352;9.074;2023-05-07T09:50:55;13.00;99.90
21508;DHT22;10915;54.352;9.074;2023-05-07T09:53:25;13.10;99.90
21508;DHT22;10915;54.352;9.074;2023-05-07T09:55:52;13.30;99.90
21508;DHT22;10915;54.352;9.074;2023-05-07T09:58:18;13.30;99.90
21508;DHT22;10915;54.352;9.074;2023-05-07T10:00:44;13.50;99.90
21508;DHT22;10915;54.352;9.074;2023-05-07T10:03:11;13.50;99.90
21508;DHT22;10915;54.352;9.074;2023-05-07T10:05:38;13.70;99.90
21508;DHT22;10915;54.352;9.074;2023-05-07T10:08:04;14.00;99.90
21508;DHT22;10915;54.352;9.074;2023-05-07T10:10:33;14.20;99.90
21508;DHT22;10915;54.352;9.074;2023-05-07T10:12:59;14.10;99.90
21508;DHT22;10915;54.352;9.074;2023-05-07T10:15:26;14.20;99.90
21508;DHT22;10915;54.352;9.074;2023-05-07T10:17:53;14.30;99.90
21508;DHT22;10915;54.352;9.074;2023-05-07T10:20:19;14.40;99.90
21508;DHT22;10915;54.352;9.074;2023-05-07T10:22:47;14.50;99.90
21508;DHT22;10915;54.352;9.074;2023-05-07T10:25:22;14.60;99.90
21508;DHT22;10915;54.352;9.074;2023-05-07T10:27:50;15.00;99.90
21508;DHT22;10915;54.352;9.074;2023-05-07T10:32:59;15.00;99.90
21508;DHT22;10915;54.352;9.074;2023-05-07T10:35:32;15.80;99.90
21508;DHT22;10915;54.352;9.074;2023-05-07T10:38:01;15.90;99.90
21508;DHT22;10915;54.352;9.074;2023-05-07T10:40:27;15.70;99.90
21508;DHT22;10915;54.352;9.074;2023-05-07T10:43:01;15.10;99.90
21508;DHT22;10915;54.352;9.074;2023-05-07T10:45:27;14.80;99.90
21508;DHT22;10915;54.352;9.074;2023-05-07T10:48:12;14.70;99.90
21508;DHT22;10915;54.352;9.074;2023-05-07T10:50:47;14.50;99.90
21508;DHT22;10915;54.352;9.074;2023-05-07T10:55:47;14.50;99.90
21508;DHT22;10915;54.352;9.074;2023-05-07T10:58:25;14.80;99.90
21508;DHT22;10915;54.352;9.074;2023-05-07T11:03:22;15.80;99.90
21508;DHT22;10915;54.352;9.074;2023-05-07T11:05:47;16.00;99.90
21508;DHT22;10915;54.352;9.074;2023-05-07T11:11:18;15.80;99.90
21508;DHT22;10915;54.352;9.074;2023-05-07T11:13:46;15.80;99.90
21508;DHT22;10915;54.352;9.074;2023-05-07T11:16:23;15.80;99.90
21508;DHT22;10915;54.352;9.074;2023-05-07T11:18:58;16.00;99.90
21508;DHT22;10915;54.352;9.074;2023-05-07T11:21:40;16.30;99.90
21508;DHT22;10915;54.352;9.074;2023-05-07T11:24:08;16.40;99.90
21508;DHT22;10915;54.352;9.074;2023-05-07T11:29:21;16.00;99.90
21508;DHT22;10915;54.352;9.074;2023-05-07T11:31:51;15.30;99.90
21508;DHT22;10915;54.352;9.074;2023-05-07T11:34:25;15.00;99.90
21508;DHT22;10915;54.352;9.074;2023-05-07T11:36:52;14.80;99.90
21508;DHT22;10915;54.352;9.074;2023-05-07T11:39:44;14.70;99.90
21508;DHT22;10915;54.352;9.074;2023-05-07T11:42:29;14.90;99.90
21508;DHT22;10915;54.352;9.074;2023-05-07T11:44:55;15.10;99.90
21508;DHT22;10915;54.352;9.074;2023-05-07T11:47:21;15.30;99.90
21508;DHT22;10915;54.352;9.074;2023-05-07T11:49:52;15.40;99.90
21508;DHT22;10915;54.352;9.074;2023-05-07T11:52:19;15.40;99.90
21508;DHT22;10915;54.352;9.074;2023-05-07T11:54:56;15.70;99.90
21508;DHT22;10915;54.352;9.074;2023-05-07T11:57:25;16.00;99.90
21508;DHT22;10915;54.352;9.074;2023-05-07T12:02:21;15.50;99.90
21508;DHT22;10915;54.352;9.074;2023-05-07T12:04:46;15.50;99.90
21508;DHT22;10915;54.352;9.074;2023-05-07T12:07:12;15.60;99.90
21508;DHT22;10915;54.352;9.074;2023-05-07T12:09:41;15.60;99.90
21508;DHT22;10915;54.352;9.074;2023-05-07T12:12:08;15.40;99.90
21508;DHT22;10915;54.352;9.074;2023-05-07T12:14:40;15.20;99.90
21508;DHT22;10915;54.352;9.074;2023-05-07T12:17:09;15.50;99.90
21508;DHT22;10915;54.352;9.074;2023-05-07T12:19:36;15.80;99.90
21508;DHT22;10915;54.352;9.074;2023-05-07T12:22:03;16.20;99.90
21508;DHT22;10915;54.352;9.074;2023-05-07T12:24:30;16.50;99.90
21508;DHT22;10915;54.352;9.074;2023-05-07T12:27:06;16.90;99.90
21508;DHT22;10915;54.352;9.074;2023-05-07T12:29:32;16.90;99.90
21508;DHT22;10915;54.352;9.074;2023-05-07T12:31:58;17.10;99.90
21508;DHT22;10915;54.352;9.074;2023-05-07T12:34:24;17.10;99.90
21508;DHT22;10915;54.352;9.074;2023-05-07T12:36:49;17.20;99.90
21508;DHT22;10915;54.352;9.074;2023-05-07T12:39:15;17.00;99.90
21508;DHT22;10915;54.352;9.074;2023-05-07T12:41:57;17.10;99.90
21508;DHT22;10915;54.352;9.074;2023-05-07T12:44:33;17.30;99.90
21508;DHT22;10915;54.352;9.074;2023-05-07T12:47:02;17.20;99.90
21508;DHT22;10915;54.352;9.074;2023-05-07T12:49:28;17.10;99.90
21508;DHT22;10915;54.352;9.074;2023-05-07T12:51:54;17.30;99.90
21508;DHT22;10915;54.352;9.074;2023-05-07T12:54:33;17.40;99.90
21508;DHT22;10915;54.352;9.074;2023-05-07T12:57:04;17.60;99.90
21508;DHT22;10915;54.352;9.074;2023-05-07T12:59:38;17.70;99.90
21508;DHT22;10915;54.352;9.074;2023-05-07T13:02:05;17.30;99.90
21508;DHT22;10915;54.352;9.074;2023-05-07T13:04:31;17.20;99.90
21508;DHT22;10915;54.352;9.074;2023-05-07T13:06:58;17.20;99.90
21508;DHT22;10915;54.352;9.074;2023-05-07T13:09:24;17.10;99.90
21508;DHT22;10915;54.352;9.074;2023-05-07T13:11:50;17.10;99.90
21508;DHT22;10915;54.352;9.074;2023-05-07T13:14:15;17.40;99.90
21508;DHT22;10915;54.352;9.074;2023-05-07T13:16:41;17.40;99.90
21508;DHT22;10915;54.352;9.074;2023-05-07T13:19:07;17.40;99.90
21508;DHT22;10915;54.352;9.074;2023-05-07T13:21:32;17.40;99.90
21508;DHT22;10915;54.352;9.074;2023-05-07T13:23:58;17.40;99.90
21508;DHT22;10915;54.352;9.074;2023-05-07T13:26:24;17.30;99.90
21508;DHT22;10915;54.352;9.074;2023-05-07T13:28:50;17.40;99.90
21508;DHT22;10915;54.352;9.074;2023-05-07T13:31:17;17.60;99.90
21508;DHT22;10915;54.352;9.074;2023-05-07T13:33:43;17.50;99.90
21508;DHT22;10915;54.352;9.074;2023-05-07T13:36:08;17.50;99.90
21508;DHT22;10915;54.352;9.074;2023-05-07T13:38:34;17.50;99.90
21508;DHT22;10915;54.352;9.074;2023-05-07T13:41:00;17.30;99.90
21508;DHT22;10915;54.352;9.074;2023-05-07T13:43:26;17.50;99.90
21508;DHT22;10915;54.352;9.074;2023-05-07T13:45:51;17.50;99.90
21508;DHT22;10915;54.352;9.074;2023-05-07T13:48:17;17.60;99.90
21508;DHT22;10915;54.352;9.074;2023-05-07T13:50:43;17.70;99.90
21508;DHT22;10915;54.352;9.074;2023-05-07T13:53:08;17.60;99.90
21508;DHT22;10915;54.352;9.074;2023-05-07T13:55:34;17.70;99.90
21508;DHT22;10915;54.352;9.074;2023-05-07T13:58:01;17.70;99.90
21508;DHT22;10915;54.352;9.074;2023-05-07T14:00:28;17.60;99.90
21508;DHT22;10915;54.352;9.074;2023-05-07T14:02:54;17.60;99.90
21508;DHT22;10915;54.352;9.074;2023-05-07T14:05:21;17.80;99.90
21508;DHT22;10915;54.352;9.074;2023-05-07T14:07:49;17.90;99.90
21508;DHT22;10915;54.352;9.074;2023-05-07T14:10:17;17.90;99.90
21508;DHT22;10915;54.352;9.074;2023-05-07T14:12:44;17.90;99.90
21508;DHT22;10915;54.352;9.074;2023-05-07T14:15:10;17.90;99.90
21508;DHT22;10915;54.352;9.074;2023-05-07T14:17:36;18.10;99.90
21508;DHT22;10915;54.352;9.074;2023-05-07T14:20:02;18.20;99.90
21508;DHT22;10915;54.352;9.074;2023-05-07T14:22:28;18.10;99.90
21508;DHT22;10915;54.352;9.074;2023-05-07T14:24:53;18.00;99.90
21508;DHT22;10915;54.352;9.074;2023-05-07T14:27:19;18.20;99.90
21508;DHT22;10915;54.352;9.074;2023-05-07T14:29:44;18.20;99.90
21508;DHT22;10915;54.352;9.074;2023-05-07T14:32:11;18.00;99.90
21508;DHT22;10915;54.352;9.074;2023-05-07T14:34:36;18.20;99.90
21508;DHT22;10915;54.352;9.074;2023-05-07T14:37:02;18.20;99.90
21508;DHT22;10915;54.352;9.074;2023-05-07T14:39:28;18.20;99.90
21508;DHT22;10915;54.352;9.074;2023-05-07T14:41:54;18.00;99.90
21508;DHT22;10915;54.352;9.074;2023-05-07T14:44:21;17.90;99.90
21508;DHT22;10915;54.352;9.074;2023-05-07T14:46:47;17.90;99.90
21508;DHT22;10915;54.352;9.074;2023-05-07T14:49:14;17.90;99.90
21508;DHT22;10915;54.352;9.074;2023-05-07T14:51:46;17.80;99.90
21508;DHT22;10915;54.352;9.074;2023-05-07T14:54:13;17.70;99.90
21508;DHT22;10915;54.352;9.074;2023-05-07T14:56:39;17.80;99.90
21508;DHT22;10915;54.352;9.074;2023-05-07T14:59:05;17.70;99.90
21508;DHT22;10915;54.352;9.074;2023-05-07T15:01:30;17.70;99.90
21508;DHT22;10915;54.352;9.074;2023-05-07T15:03:56;17.80;99.90
21508;DHT22;10915;54.352;9.074;2023-05-07T15:06:22;18.00;99.90
21508;DHT22;10915;54.352;9.074;2023-05-07T15:08:47;18.00;99.90
21508;DHT22;10915;54.352;9.074;2023-05-07T15:11:14;18.00;99.90
21508;DHT22;10915;54.352;9.074;2023-05-07T15:13:41;17.80;99.90
21508;DHT22;10915;54.352;9.074;2023-05-07T15:16:07;17.80;99.90
21508;DHT22;10915;54.352;9.074;2023-05-07T15:18:32;17.90;99.90
21508;DHT22;10915;54.352;9.074;2023-05-07T15:20:58;17.90;99.90
21508;DHT22;10915;54.352;9.074;2023-05-07T15:23:24;17.90;99.90
21508;DHT22;10915;54.352;9.074;2023-05-07T15:25:50;17.90;99.90
21508;DHT22;10915;54.352;9.074;2023-05-07T15:28:15;17.90;99.90
21508;DHT22;10915;54.352;9.074;2023-05-07T15:30:41;18.00;99.90
21508;DHT22;10915;54.352;9.074;2023-05-07T15:33:07;18.00;99.90
21508;DHT22;10915;54.352;9.074;2023-05-07T15:35:32;17.90;99.90
21508;DHT22;10915;54.352;9.074;2023-05-07T15:37:58;17.80;99.90
21508;DHT22;10915;54.352;9.074;2023-05-07T15:40:24;17.70;99.90
21508;DHT22;10915;54.352;9.074;2023-05-07T15:42:50;17.80;99.90
21508;DHT22;10915;54.352;9.074;2023-05-07T15:45:19;17.80;99.90
21508;DHT22;10915;54.352;9.074;2023-05-07T15:47:44;17.70;99.90
21508;DHT22;10915;54.352;9.074;2023-05-07T15:50:10;17.60;99.90
21508;DHT22;10915;54.352;9.074;2023-05-07T15:52:37;17.60;99.90
21508;DHT22;10915;54.352;9.074;2023-05-07T15:55:04;17.50;99.90